Time;durP1;ratioP1;P1;durP2;ratioP2;P2;SDS_P1;SDS_P2;PMS_P1;PMS_P2;Temp;Humidity;BMP_temperature;BMP_pressure;BME280_temperature;BME280_humidity;BME280_pressure;Samples;Min_cycle;Max_cycle;Signal;HPM_P1;HPM_P2
2023/10/19 00:00:39;;;;;;;66.20;30.07;;;;;;;;;;5071211;28;20076;-62
2023/10/19 00:03:08;;;;;;;47.77;25.93;;;;;;;;;;5050912;28;20112;-62
2023/10/19 00:05:34;;;;;;;63.40;30.67;;;;;;;;;;5065004;28;20070;-64
2023/10/19 00:08:05;;;;;;;62.40;30.07;;;;;;;;;;5060974;28;20099;-62
2023/10/19 00:10:34;;;;;;;65.87;29.17;;;;;;;;;;5050551;28;20045;-62
2023/10/19 00:13:05;;;;;;;54.00;28.83;;;;;;;;;;5050640;28;20102;-62
2023/10/19 00:15:33;;;;;;;62.80;31.17;;;;;;;;;;5050263;28;20096;-62
2023/10/19 00:18:08;;;;;;;50.87;26.30;;;;;;;;;;5065076;28;20045;-63
2023/10/19 00:20:51;;;;;;;61.53;30.70;;;;;;;;;;5070193;28;20101;-62
2023/10/19 00:23:18;;;;;;;56.77;29.63;;;;;;;;;;5068552;28;20056;-63
2023/10/19 00:25:53;;;;;;;61.60;30.30;;;;;;;;;;5070061;28;20055;-62
2023/10/19 00:28:19;;;;;;;57.03;30.13;;;;;;;;;;5070094;28;20052;-62
2023/10/19 00:30:48;;;;;;;58.47;30.30;;;;;;;;;;5052140;28;20491;-62
2023/10/19 00:33:19;;;;;;;84.97;34.70;;;;;;;;;;5062598;28;20056;-62
2023/10/19 00:35:57;;;;;;;72.57;34.10;;;;;;;;;;5070016;28;20054;-62
2023/10/19 00:40:53;;;;;;;56.87;29.40;;;;;;;;;;5049940;28;20146;-62
2023/10/19 00:43:33;;;;;;;90.13;35.70;;;;;;;;;;5049530;28;20488;-62
2023/10/19 00:46:01;;;;;;;97.30;40.17;;;;;;;;;;5048726;28;20525;-63
2023/10/19 00:48:28;;;;;;;89.43;37.83;;;;;;;;;;5049619;28;20123;-63
2023/10/19 00:51:06;;;;;;;69.47;34.87;;;;;;;;;;5049619;28;20048;-63
2023/10/19 00:53:34;;;;;;;72.97;34.53;;;;;;;;;;5049477;28;20049;-63
2023/10/19 00:56:02;;;;;;;110.50;42.73;;;;;;;;;;5049829;28;20482;-62
2023/10/19 00:58:30;;;;;;;75.30;35.10;;;;;;;;;;5065407;28;20072;-62
2023/10/19 01:00:56;;;;;;;101.17;38.93;;;;;;;;;;5069206;28;20052;-62
2023/10/19 01:03:22;;;;;;;135.97;48.57;;;;;;;;;;5068733;28;20048;-62
2023/10/19 01:05:48;;;;;;;87.43;39.33;;;;;;;;;;5069864;28;20407;-62
2023/10/19 01:08:24;;;;;;;89.57;39.93;;;;;;;;;;5048138;28;20562;-62
2023/10/19 01:10:52;;;;;;;99.27;41.23;;;;;;;;;;5049382;28;20049;-63
2023/10/19 01:13:26;;;;;;;107.90;43.63;;;;;;;;;;5057888;28;20044;-63
2023/10/19 01:15:52;;;;;;;111.43;44.47;;;;;;;;;;5063208;28;20427;-63
2023/10/19 01:18:18;;;;;;;123.73;45.73;;;;;;;;;;5049395;28;20735;-63
2023/10/19 01:20:50;;;;;;;106.70;42.67;;;;;;;;;;5049172;28;20048;-63
2023/10/19 01:23:20;;;;;;;122.07;43.60;;;;;;;;;;5064335;28;20078;-63
2023/10/19 01:28:25;;;;;;;125.10;45.00;;;;;;;;;;5069010;28;20052;-63
2023/10/19 01:30:51;;;;;;;81.93;38.80;;;;;;;;;;5067508;28;20107;-63
2023/10/19 01:33:18;;;;;;;94.50;40.60;;;;;;;;;;5049184;28;20080;-63
2023/10/19 01:38:32;;;;;;;87.50;37.17;;;;;;;;;;5068149;28;20056;-63
2023/10/19 01:41:05;;;;;;;77.43;35.60;;;;;;;;;;5060274;28;20056;-63
2023/10/19 01:43:32;;;;;;;85.30;37.95;;;;;;;;;;5049501;28;20048;-63
2023/10/19 01:46:11;;;;;;;118.97;44.03;;;;;;;;;;5059156;28;20409;-62
2023/10/19 01:48:38;;;;;;;104.80;42.33;;;;;;;;;;5067478;28;20079;-62
2023/10/19 01:51:04;;;;;;;94.77;41.17;;;;;;;;;;5049282;28;20135;-62
2023/10/19 01:53:31;;;;;;;131.80;47.43;;;;;;;;;;5047883;28;20045;-63
2023/10/19 01:55:58;;;;;;;135.90;47.37;;;;;;;;;;5046473;28;20051;-62
2023/10/19 01:58:27;;;;;;;92.17;38.63;;;;;;;;;;5048490;28;20056;-62
2023/10/19 02:01:00;;;;;;;99.00;40.67;;;;;;;;;;5048624;28;20076;-63
2023/10/19 02:03:28;;;;;;;102.07;39.90;;;;;;;;;;5048607;28;20055;-63
2023/10/19 02:06:06;;;;;;;99.13;39.73;;;;;;;;;;5048639;28;20060;-63
2023/10/19 02:08:31;;;;;;;63.13;31.33;;;;;;;;;;5048227;28;20497;-63
2023/10/19 02:11:02;;;;;;;70.87;34.23;;;;;;;;;;5048603;28;20148;-63
2023/10/19 02:13:28;;;;;;;75.23;35.10;;;;;;;;;;5048436;28;20110;-63
2023/10/19 02:15:54;;;;;;;73.10;32.23;;;;;;;;;;5048542;28;20044;-63
2023/10/19 02:18:20;;;;;;;92.37;38.50;;;;;;;;;;5048244;28;20160;-62
2023/10/19 02:20:48;;;;;;;77.83;33.73;;;;;;;;;;5047993;28;20045;-62
2023/10/19 02:23:14;;;;;;;64.60;30.17;;;;;;;;;;5048283;28;20582;-63
2023/10/19 02:25:42;;;;;;;80.17;35.40;;;;;;;;;;5047383;28;20519;-62
2023/10/19 02:28:09;;;;;;;95.33;37.70;;;;;;;;;;5048247;28;20130;-63
2023/10/19 02:30:35;;;;;;;96.27;37.57;;;;;;;;;;5048421;28;20474;-62
2023/10/19 02:33:03;;;;;;;64.07;31.43;;;;;;;;;;5047641;28;20128;-63
2023/10/19 02:35:29;;;;;;;64.33;28.27;;;;;;;;;;5048207;28;20072;-62
2023/10/19 02:37:55;;;;;;;64.57;29.43;;;;;;;;;;5052222;28;20094;-66
2023/10/19 02:40:23;;;;;;;73.27;31.47;;;;;;;;;;5067610;28;20453;-63
2023/10/19 02:42:53;;;;;;;70.10;30.77;;;;;;;;;;5068335;28;20137;-62
2023/10/19 02:45:19;;;;;;;69.30;30.83;;;;;;;;;;5067803;28;20426;-62
2023/10/19 02:47:46;;;;;;;92.50;34.73;;;;;;;;;;5067059;28;20055;-62
2023/10/19 02:50:16;;;;;;;61.13;28.60;;;;;;;;;;5068174;28;20047;-63
2023/10/19 02:52:45;;;;;;;82.90;33.03;;;;;;;;;;5067860;28;20372;-62
2023/10/19 02:55:11;;;;;;;100.93;36.27;;;;;;;;;;5066927;28;20533;-62
2023/10/19 02:57:37;;;;;;;58.00;29.23;;;;;;;;;;5067967;28;20040;-62
2023/10/19 03:00:14;;;;;;;92.33;36.07;;;;;;;;;;5068359;28;20127;-62
2023/10/19 03:02:40;;;;;;;90.33;35.30;;;;;;;;;;5067833;28;20052;-62
2023/10/19 03:05:14;;;;;;;69.57;33.27;;;;;;;;;;5067997;28;20127;-62
2023/10/19 03:07:40;;;;;;;;;;;;;;;;;;5067888;28;20044;-63
2023/10/19 03:10:07;;;;;;;71.43;30.37;;;;;;;;;;5071793;28;20022;-62
2023/10/19 03:12:33;;;;;;;99.53;37.50;;;;;;;;;;5071395;28;20040;-62
2023/10/19 03:15:00;;;;;;;85.97;35.00;;;;;;;;;;5071863;28;20410;-62
2023/10/19 03:17:28;;;;;;;92.57;34.83;;;;;;;;;;5071643;28;20055;-64
2023/10/19 03:19:55;;;;;;;83.40;35.53;;;;;;;;;;5071594;28;20060;-62
2023/10/19 03:22:21;;;;;;;86.63;35.13;;;;;;;;;;5071299;28;20393;-66
2023/10/19 03:24:47;;;;;;;71.87;34.07;;;;;;;;;;5071153;28;20055;-62
2023/10/19 03:27:23;;;;;;;103.93;38.80;;;;;;;;;;5071409;28;20048;-62
2023/10/19 03:29:56;;;;;;;135.23;44.43;;;;;;;;;;5071488;28;20045;-62
2023/10/19 03:32:26;;;;;;;97.72;37.50;;;;;;;;;;5072322;28;20055;-62
2023/10/19 03:34:55;;;;;;;129.10;44.20;;;;;;;;;;5071592;28;20055;-62
2023/10/19 03:37:22;;;;;;;108.53;39.70;;;;;;;;;;5070604;28;20068;-62
2023/10/19 03:39:49;;;;;;;79.77;34.83;;;;;;;;;;5050308;28;20136;-63
2023/10/19 03:42:15;;;;;;;70.70;34.23;;;;;;;;;;5051121;28;20049;-62
2023/10/19 03:47:11;;;;;;;82.57;35.73;;;;;;;;;;5051155;28;20072;-62
2023/10/19 03:49:39;;;;;;;73.80;34.43;;;;;;;;;;5051150;28;20510;-62
2023/10/19 03:54:37;;;;;;;102.57;39.37;;;;;;;;;;5053304;28;20044;-62
2023/10/19 03:57:06;;;;;;;89.97;37.27;;;;;;;;;;5062466;28;20419;-63
2023/10/19 03:59:34;;;;;;;102.20;39.93;;;;;;;;;;5061779;28;20403;-62
2023/10/19 04:02:07;;;;;;;108.17;40.33;;;;;;;;;;5069012;28;20461;-62
2023/10/19 04:04:33;;;;;;;89.88;36.40;;;;;;;;;;5050862;28;20542;-62
2023/10/19 04:06:59;;;;;;;107.60;39.10;;;;;;;;;;5050714;28;20206;-63
2023/10/19 04:09:29;;;;;;;106.53;39.57;;;;;;;;;;5051136;28;20140;-62
2023/10/19 04:11:57;;;;;;;109.03;40.30;;;;;;;;;;5050360;28;20045;-63
2023/10/19 04:14:23;;;;;;;84.50;36.03;;;;;;;;;;5048454;28;20064;-63
2023/10/19 04:16:49;;;;;;;99.47;39.63;;;;;;;;;;5055409;28;20063;-62
2023/10/19 04:19:15;;;;;;;130.40;45.73;;;;;;;;;;5056644;28;20127;-62
2023/10/19 04:21:46;;;;;;;111.80;41.73;;;;;;;;;;5050050;28;20045;-62
2023/10/19 04:24:12;;;;;;;105.33;39.97;;;;;;;;;;5050191;28;20091;-62
2023/10/19 04:26:39;;;;;;;159.97;49.27;;;;;;;;;;5050270;28;20040;-63
2023/10/19 04:29:12;;;;;;;92.83;37.47;;;;;;;;;;5050259;28;20473;-63
2023/10/19 04:31:49;;;;;;;111.50;43.22;;;;;;;;;;5050351;28;20073;-62
2023/10/19 04:34:20;;;;;;;133.77;45.47;;;;;;;;;;5052816;28;20079;-62
2023/10/19 04:36:46;;;;;;;98.03;39.07;;;;;;;;;;5068178;28;20044;-63
2023/10/19 04:39:13;;;;;;;110.13;40.70;;;;;;;;;;5070016;28;20147;-62
2023/10/19 04:41:44;;;;;;;118.73;43.50;;;;;;;;;;5070174;28;20049;-62
2023/10/19 04:44:10;;;;;;;105.63;39.70;;;;;;;;;;5068910;28;20694;-62
2023/10/19 04:46:36;;;;;;;88.00;37.23;;;;;;;;;;5068821;28;20052;-63
2023/10/19 04:49:03;;;;;;;120.37;41.23;;;;;;;;;;5069891;28;20499;-63
2023/10/19 04:51:29;;;;;;;122.40;43.00;;;;;;;;;;5070114;28;20475;-63
2023/10/19 04:53:55;;;;;;;166.87;50.50;;;;;;;;;;5069933;28;20044;-62
2023/10/19 04:56:22;;;;;;;122.73;44.07;;;;;;;;;;5069328;28;20494;-63
2023/10/19 04:58:48;;;;;;;106.90;40.63;;;;;;;;;;5069741;28;20051;-62
2023/10/19 05:01:14;;;;;;;120.57;42.90;;;;;;;;;;5069468;28;20044;-62
2023/10/19 05:03:40;;;;;;;123.20;44.00;;;;;;;;;;5069672;28;20135;-63
2023/10/19 05:06:07;;;;;;;91.40;38.83;;;;;;;;;;5069787;28;20044;-62
2023/10/19 05:08:33;;;;;;;109.80;41.10;;;;;;;;;;5069087;28;20057;-63
2023/10/19 05:10:59;;;;;;;94.37;40.03;;;;;;;;;;5064644;28;20635;-62
2023/10/19 05:13:25;;;;;;;133.70;44.83;;;;;;;;;;5049791;28;20045;-62
2023/10/19 05:15:55;;;;;;;128.50;44.53;;;;;;;;;;5049346;28;20128;-62
2023/10/19 05:18:22;;;;;;;128.23;44.37;;;;;;;;;;5049193;28;20139;-62
2023/10/19 05:20:48;;;;;;;105.87;40.83;;;;;;;;;;5049602;28;20414;-63
2023/10/19 05:23:14;;;;;;;112.80;42.23;;;;;;;;;;5048693;28;20482;-62
2023/10/19 05:25:40;;;;;;;110.00;41.23;;;;;;;;;;5049224;28;20052;-62
2023/10/19 05:28:06;;;;;;;126.77;44.80;;;;;;;;;;5049312;28;20455;-62
2023/10/19 05:30:33;;;;;;;95.60;37.67;;;;;;;;;;5052408;28;20410;-62
2023/10/19 05:33:01;;;;;;;91.03;37.77;;;;;;;;;;5049448;28;20155;-62
2023/10/19 05:35:27;;;;;;;101.43;41.27;;;;;;;;;;5048971;28;20388;-63
2023/10/19 05:37:56;;;;;;;129.87;45.50;;;;;;;;;;5048581;28;20764;-63
2023/10/19 05:40:23;;;;;;;154.60;48.07;;;;;;;;;;5048785;28;20128;-62
2023/10/19 05:42:49;;;;;;;138.47;45.93;;;;;;;;;;5049000;28;20049;-62
2023/10/19 05:45:16;;;;;;;108.90;42.20;;;;;;;;;;5048717;28;20407;-62
2023/10/19 05:47:43;;;;;;;122.60;43.07;;;;;;;;;;5060891;28;20091;-62
2023/10/19 05:50:14;;;;;;;92.70;39.13;;;;;;;;;;5060627;28;20506;-62
2023/10/19 05:52:40;;;;;;;97.73;39.37;;;;;;;;;;5060236;28;20453;-62
2023/10/19 05:55:08;;;;;;;108.77;42.20;;;;;;;;;;5069053;28;20132;-62
2023/10/19 05:57:35;;;;;;;95.13;39.77;;;;;;;;;;5050234;28;20049;-62
2023/10/19 06:00:01;;;;;;;87.30;38.73;;;;;;;;;;5048170;28;20098;-62
2023/10/19 06:02:27;;;;;;;104.07;40.20;;;;;;;;;;5048742;28;20144;-62
2023/10/19 06:04:53;;;;;;;131.07;46.50;;;;;;;;;;5048536;28;20136;-63
2023/10/19 06:07:19;;;;;;;92.83;40.67;;;;;;;;;;5048599;28;20049;-63
2023/10/19 06:09:46;;;;;;;154.03;50.63;;;;;;;;;;5066659;28;20048;-63
2023/10/19 06:12:12;;;;;;;137.77;47.13;;;;;;;;;;5068509;28;20040;-62
2023/10/19 06:14:38;;;;;;;124.13;44.67;;;;;;;;;;5068232;28;20041;-62
2023/10/19 06:17:04;;;;;;;154.77;50.97;;;;;;;;;;5068182;28;20066;-62
2023/10/19 06:19:30;;;;;;;105.93;42.50;;;;;;;;;;5067714;28;20517;-62
2023/10/19 06:21:56;;;;;;;119.17;45.53;;;;;;;;;;5068210;28;20067;-62
2023/10/19 06:24:22;;;;;;;100.87;40.50;;;;;;;;;;5067811;28;20491;-62
2023/10/19 06:26:48;;;;;;;136.50;48.40;;;;;;;;;;5067901;28;20037;-62
2023/10/19 06:29:14;;;;;;;112.93;46.13;;;;;;;;;;5058346;28;20064;-62
2023/10/19 06:31:40;;;;;;;143.13;48.53;;;;;;;;;;5048169;28;20037;-62
2023/10/19 06:34:06;;;;;;;237.27;61.80;;;;;;;;;;5047439;28;20053;-62
2023/10/19 06:36:32;;;;;;;126.80;44.93;;;;;;;;;;5047886;28;20041;-62
2023/10/19 06:38:58;;;;;;;136.17;47.90;;;;;;;;;;5053960;28;20055;-62
2023/10/19 06:41:24;;;;;;;204.37;60.90;;;;;;;;;;5067924;28;20124;-62
2023/10/19 06:43:50;;;;;;;124.47;46.70;;;;;;;;;;5070144;28;20056;-62
2023/10/19 06:46:16;;;;;;;158.07;51.50;;;;;;;;;;5057445;28;20036;-62
2023/10/19 06:48:42;;;;;;;140.90;48.73;;;;;;;;;;5071222;28;20110;-62
2023/10/19 06:51:08;;;;;;;119.73;44.97;;;;;;;;;;5065849;28;20049;-62
2023/10/19 06:53:35;;;;;;;186.43;54.60;;;;;;;;;;5051755;28;20051;-62
2023/10/19 06:56:04;;;;;;;189.40;56.47;;;;;;;;;;5051204;28;20090;-62
2023/10/19 06:58:30;;;;;;;181.50;55.33;;;;;;;;;;5063251;28;20048;-65
2023/10/19 07:00:56;;;;;;;133.57;47.13;;;;;;;;;;5070521;28;20064;-63
2023/10/19 07:03:22;;;;;;;220.97;59.87;;;;;;;;;;5070616;28;20133;-66
2023/10/19 07:05:49;;;;;;;193.37;56.57;;;;;;;;;;5071123;28;20455;-62
2023/10/19 07:08:15;;;;;;;175.17;52.07;;;;;;;;;;5069873;28;20526;-62
2023/10/19 07:10:42;;;;;;;130.40;46.60;;;;;;;;;;5070231;28;20048;-62
2023/10/19 07:13:09;;;;;;;147.50;49.57;;;;;;;;;;5069874;28;20067;-62
2023/10/19 07:15:34;;;;;;;98.97;41.80;;;;;;;;;;5070601;28;20484;-62
2023/10/19 07:18:00;;;;;;;174.73;52.93;;;;;;;;;;5071448;28;20131;-62
2023/10/19 07:20:28;;;;;;;115.27;45.93;;;;;;;;;;5070803;28;20044;-62
2023/10/19 07:23:18;;;;;;;193.23;58.13;;;;;;;;;;5070580;28;20119;-62
2023/10/19 07:25:45;;;;;;;182.07;56.17;;;;;;;;;;5068964;28;20499;-62
2023/10/19 07:28:15;;;;;;;154.40;51.17;;;;;;;;;;5068423;28;20036;-63
2023/10/19 07:30:41;;;;;;;214.87;60.17;;;;;;;;;;5070781;28;20048;-63
2023/10/19 07:33:16;;;;;;;296.03;68.47;;;;;;;;;;5070057;28;20059;-63
2023/10/19 07:35:43;;;;;;;133.50;49.63;;;;;;;;;;5059864;28;20489;-63
2023/10/19 07:38:10;;;;;;;151.27;52.07;;;;;;;;;;5065254;28;20057;-63
2023/10/19 07:40:36;;;;;;;170.73;55.00;;;;;;;;;;5066264;28;20102;-63
2023/10/19 07:43:03;;;;;;;221.70;60.53;;;;;;;;;;5061444;28;20075;-63
2023/10/19 07:45:31;;;;;;;152.20;52.83;;;;;;;;;;5062230;28;20060;-63
2023/10/19 07:47:57;;;;;;;191.77;59.03;;;;;;;;;;5065448;28;20044;-63
2023/10/19 07:50:23;;;;;;;150.53;51.97;;;;;;;;;;5054571;28;20473;-63
2023/10/19 07:52:53;;;;;;;201.23;58.53;;;;;;;;;;5068627;28;20139;-63
2023/10/19 07:55:21;;;;;;;164.87;52.43;;;;;;;;;;5068116;28;20082;-63
2023/10/19 07:57:50;;;;;;;155.63;53.27;;;;;;;;;;5063559;28;20056;-63
2023/10/19 08:00:17;;;;;;;197.73;58.27;;;;;;;;;;5053280;28;20072;-62
2023/10/19 08:02:46;;;;;;;200.67;59.30;;;;;;;;;;5050472;28;20415;-63
2023/10/19 08:05:18;;;;;;;136.13;52.07;;;;;;;;;;5051765;28;20144;-62
2023/10/19 08:07:45;;;;;;;147.53;52.13;;;;;;;;;;5049629;28;20048;-63
2023/10/19 08:10:12;;;;;;;215.83;61.17;;;;;;;;;;5069080;28;20060;-63
2023/10/19 08:12:41;;;;;;;166.17;54.53;;;;;;;;;;5067913;28;20127;-63
2023/10/19 08:15:11;;;;;;;182.33;54.83;;;;;;;;;;5056546;28;20124;-63
2023/10/19 08:17:38;;;;;;;179.00;56.50;;;;;;;;;;5054624;28;20119;-63
2023/10/19 08:20:08;;;;;;;139.00;49.77;;;;;;;;;;5050105;28;20139;-63
2023/10/19 08:22:36;;;;;;;172.37;55.83;;;;;;;;;;5063711;28;20438;-62
2023/10/19 08:25:03;;;;;;;161.83;54.20;;;;;;;;;;5070170;28;20048;-63
2023/10/19 08:27:29;;;;;;;151.17;50.67;;;;;;;;;;5067778;28;20048;-63
2023/10/19 08:29:56;;;;;;;212.97;61.13;;;;;;;;;;5069972;28;20506;-63
2023/10/19 08:32:22;;;;;;;108.60;45.33;;;;;;;;;;5061312;28;20048;-62
2023/10/19 08:34:48;;;;;;;159.27;53.20;;;;;;;;;;5061805;28;20379;-62
2023/10/19 08:37:14;;;;;;;145.40;52.20;;;;;;;;;;5068765;28;20147;-63
2023/10/19 08:39:40;;;;;;;288.53;68.80;;;;;;;;;;5069937;28;20055;-63
2023/10/19 08:42:07;;;;;;;141.83;51.13;;;;;;;;;;5063696;28;20037;-63
2023/10/19 08:44:34;;;;;;;138.87;50.67;;;;;;;;;;5064916;28;20419;-63
2023/10/19 08:47:00;;;;;;;151.23;52.77;;;;;;;;;;5068273;28;20462;-63
2023/10/19 08:49:26;;;;;;;120.63;48.30;;;;;;;;;;5049561;28;20511;-63
2023/10/19 08:51:53;;;;;;;124.40;48.90;;;;;;;;;;5049477;28;20045;-62
2023/10/19 08:54:19;;;;;;;120.67;46.30;;;;;;;;;;5049030;28;20115;-62
2023/10/19 08:56:47;;;;;;;105.50;45.17;;;;;;;;;;5049174;28;20052;-62
2023/10/19 08:59:15;;;;;;;116.43;45.90;;;;;;;;;;5049146;28;20041;-63
2023/10/19 09:01:43;;;;;;;134.77;50.90;;;;;;;;;;5048762;28;20053;-63
2023/10/19 09:04:10;;;;;;;116.50;47.33;;;;;;;;;;5048661;28;20051;-63
2023/10/19 09:06:42;;;;;;;104.23;43.77;;;;;;;;;;5047288;28;20059;-63
2023/10/19 09:09:19;;;;;;;221.40;64.20;;;;;;;;;;5055756;28;20090;-63
2023/10/19 09:11:46;;;;;;;150.33;51.20;;;;;;;;;;5068608;28;20469;-62
2023/10/19 09:14:12;;;;;;;142.53;50.97;;;;;;;;;;5067186;28;20054;-63
2023/10/19 09:16:39;;;;;;;117.73;47.40;;;;;;;;;;5068236;28;20045;-63
2023/10/19 09:19:05;;;;;;;100.97;42.33;;;;;;;;;;5068392;28;20040;-63
2023/10/19 09:21:32;;;;;;;133.57;47.00;;;;;;;;;;5063868;28;20127;-62
2023/10/19 09:23:59;;;;;;;109.20;42.97;;;;;;;;;;5066844;28;20048;-62
2023/10/19 09:26:25;;;;;;;110.10;45.13;;;;;;;;;;5065565;28;20119;-63
2023/10/19 09:28:52;;;;;;;89.13;40.40;;;;;;;;;;5068898;28;20457;-63
2023/10/19 09:31:18;;;;;;;92.90;40.80;;;;;;;;;;5060857;28;20088;-63
2023/10/19 09:33:45;;;;;;;105.33;44.17;;;;;;;;;;5064230;28;20514;-63
2023/10/19 09:36:14;;;;;;;97.40;43.33;;;;;;;;;;5068052;28;20041;-64
2023/10/19 09:38:51;;;;;;;113.83;44.87;;;;;;;;;;5066377;28;20061;-63
2023/10/19 09:41:28;;;;;;;121.70;45.73;;;;;;;;;;5068909;28;20106;-63
2023/10/19 09:44:00;;;;;;;85.87;38.73;;;;;;;;;;5053238;28;20044;-63
2023/10/19 09:46:31;;;;;;;93.47;40.53;;;;;;;;;;5059245;28;20060;-63
2023/10/19 09:48:58;;;;;;;116.20;44.67;;;;;;;;;;5055789;28;20044;-63
2023/10/19 09:51:25;;;;;;;104.30;43.90;;;;;;;;;;5068596;28;20040;-63
2023/10/19 09:53:58;;;;;;;88.37;41.03;;;;;;;;;;5067537;28;20415;-63
2023/10/19 09:56:28;;;;;;;180.00;56.93;;;;;;;;;;5067347;28;20051;-64
2023/10/19 09:59:05;;;;;;;119.63;46.53;;;;;;;;;;5059360;28;20136;-61
2023/10/19 10:01:50;;;;;;;194.07;57.87;;;;;;;;;;5050887;28;20041;-62
2023/10/19 10:04:45;;;;;;;100.53;42.10;;;;;;;;;;5047442;28;20094;-62
2023/10/19 10:07:11;;;;;;;127.10;46.47;;;;;;;;;;5047473;28;20060;-62
2023/10/19 10:09:45;;;;;;;76.67;38.27;;;;;;;;;;5068387;28;20043;-62
2023/10/19 10:12:24;;;;;;;134.50;49.07;;;;;;;;;;5054073;28;20056;-62
2023/10/19 10:14:58;;;;;;;180.00;53.20;;;;;;;;;;5067370;28;20041;-63
2023/10/19 10:17:26;;;;;;;107.47;44.33;;;;;;;;;;5059860;28;20037;-63
2023/10/19 10:19:56;;;;;;;128.27;48.17;;;;;;;;;;5059411;28;20041;-63
2023/10/19 10:22:23;;;;;;;159.20;53.87;;;;;;;;;;5054531;28;20085;-63
2023/10/19 10:24:54;;;;;;;151.07;51.60;;;;;;;;;;5047392;28;20140;-63
2023/10/19 10:27:20;;;;;;;81.00;40.87;;;;;;;;;;5047045;28;20053;-63
2023/10/19 10:29:59;;;;;;;105.77;47.23;;;;;;;;;;5047250;28;20136;-62
2023/10/19 10:32:44;;;;;;;74.93;39.53;;;;;;;;;;5047831;28;20045;-63
2023/10/19 10:35:10;;;;;;;72.33;38.60;;;;;;;;;;5047408;28;20041;-63
2023/10/19 10:37:39;;;;;;;81.77;40.10;;;;;;;;;;5046974;28;20060;-63
2023/10/19 10:40:06;;;;;;;56.07;35.37;;;;;;;;;;5047617;28;20140;-63
2023/10/19 10:42:34;;;;;;;63.03;35.63;;;;;;;;;;5047746;28;20041;-63
2023/10/19 10:45:02;;;;;;;54.50;33.53;;;;;;;;;;5047450;28;20044;-63
2023/10/19 10:47:33;;;;;;;62.00;36.27;;;;;;;;;;5047388;28;20049;-63
2023/10/19 10:50:00;;;;;;;52.97;31.87;;;;;;;;;;5047449;28;20041;-63
2023/10/19 10:52:36;;;;;;;88.00;42.50;;;;;;;;;;5047028;28;20147;-63
2023/10/19 10:55:12;;;;;;;60.63;35.67;;;;;;;;;;5047013;28;20049;-63
2023/10/19 10:57:39;;;;;;;53.90;32.10;;;;;;;;;;5047455;28;20454;-63
2023/10/19 11:00:15;;;;;;;87.07;39.73;;;;;;;;;;5047384;28;20525;-63
2023/10/19 11:02:49;;;;;;;81.47;39.30;;;;;;;;;;5047056;28;20044;-63
2023/10/19 11:05:16;;;;;;;47.70;29.73;;;;;;;;;;5047124;28;20060;-63
2023/10/19 11:08:02;;;;;;;47.30;30.17;;;;;;;;;;5047492;28;20126;-63
2023/10/19 11:10:31;;;;;;;49.30;29.50;;;;;;;;;;5047386;28;20048;-63
2023/10/19 11:13:17;;;;;;;45.03;29.87;;;;;;;;;;5047239;28;20045;-63
2023/10/19 11:15:50;;;;;;;48.13;31.47;;;;;;;;;;5045428;28;20041;-63
2023/10/19 11:18:16;;;;;;;;;;;;;;;;;;5047667;28;20052;-63
2023/10/19 11:20:42;;;;;;;40.97;28.17;;;;;;;;;;5047380;28;19924;-63
2023/10/19 11:23:08;;;;;;;39.27;28.73;;;;;;;;;;5046968;28;20041;-63
2023/10/19 11:25:35;;;;;;;37.57;25.43;;;;;;;;;;5046539;28;20052;-63
2023/10/19 11:28:04;;;;;;;35.50;26.53;;;;;;;;;;5046983;28;20044;-63
2023/10/19 11:30:31;;;;;;;40.37;27.97;;;;;;;;;;5050680;28;20465;-64
2023/10/19 11:32:59;;;;;;;37.87;27.63;;;;;;;;;;5050784;28;20308;-63
2023/10/19 11:35:25;;;;;;;40.20;27.53;;;;;;;;;;5050112;28;20525;-63
2023/10/19 11:37:56;;;;;;;33.47;26.33;;;;;;;;;;5050456;28;20052;-63
2023/10/19 11:40:22;;;;;;;31.27;25.00;;;;;;;;;;5050238;28;20427;-63
2023/10/19 11:42:49;;;;;;;25.43;22.67;;;;;;;;;;5050677;28;20075;-63
2023/10/19 11:45:18;;;;;;;26.23;23.37;;;;;;;;;;5050264;28;20074;-63
2023/10/19 11:47:44;;;;;;;30.83;24.50;;;;;;;;;;5050092;28;20052;-64
2023/10/19 11:50:18;;;;;;;28.07;23.27;;;;;;;;;;5050341;28;20059;-63
2023/10/19 11:52:48;;;;;;;23.50;20.97;;;;;;;;;;5050065;28;20091;-63
2023/10/19 11:55:14;;;;;;;24.30;20.63;;;;;;;;;;5049793;28;20080;-63
2023/10/19 11:57:43;;;;;;;26.17;22.20;;;;;;;;;;5050275;28;20045;-63
2023/10/19 12:00:13;;;;;;;29.23;23.03;;;;;;;;;;5050251;28;20478;-62
2023/10/19 12:02:40;;;;;;;29.40;23.60;;;;;;;;;;5050278;28;20053;-62
2023/10/19 12:05:09;;;;;;;22.13;19.67;;;;;;;;;;5049567;28;20084;-63
2023/10/19 12:07:36;;;;;;;23.27;20.53;;;;;;;;;;5050174;28;20049;-63
2023/10/19 12:10:03;;;;;;;26.27;20.90;;;;;;;;;;5050091;28;20107;-63
2023/10/19 12:12:29;;;;;;;27.03;21.40;;;;;;;;;;5049939;28;20114;-62
2023/10/19 12:14:55;;;;;;;27.80;21.33;;;;;;;;;;5049725;28;20045;-63
2023/10/19 12:17:22;;;;;;;27.63;22.77;;;;;;;;;;5049792;28;20037;-63
2023/10/19 12:19:48;;;;;;;26.03;21.13;;;;;;;;;;5049429;28;20183;-63
2023/10/19 12:22:14;;;;;;;30.10;21.90;;;;;;;;;;5049879;28;20461;-63
2023/10/19 12:24:40;;;;;;;27.47;21.43;;;;;;;;;;5049667;28;20045;-63
2023/10/19 12:27:07;;;;;;;26.93;22.27;;;;;;;;;;5049849;28;20475;-63
2023/10/19 12:29:33;;;;;;;25.57;22.33;;;;;;;;;;5049252;28;20049;-63
2023/10/19 12:32:00;;;;;;;25.23;22.13;;;;;;;;;;5049459;28;20052;-63
2023/10/19 12:34:29;;;;;;;25.43;22.80;;;;;;;;;;5049496;28;20103;-63
2023/10/19 12:36:57;;;;;;;28.03;23.07;;;;;;;;;;5049211;28;20492;-63
2023/10/19 12:39:35;;;;;;;31.40;24.60;;;;;;;;;;5049363;28;20464;-63
2023/10/19 12:42:03;;;;;;;27.00;23.90;;;;;;;;;;5047971;28;20537;-62
2023/10/19 12:44:29;;;;;;;28.90;23.87;;;;;;;;;;5049226;28;20053;-62
2023/10/19 12:46:57;;;;;;;25.43;21.67;;;;;;;;;;5049338;28;20422;-62
2023/10/19 12:49:25;;;;;;;30.50;24.67;;;;;;;;;;5049177;28;20053;-62
2023/10/19 12:51:52;;;;;;;32.70;25.43;;;;;;;;;;5049153;28;20045;-62
2023/10/19 12:54:18;;;;;;;33.77;25.70;;;;;;;;;;5048584;28;20045;-62
2023/10/19 12:56:44;;;;;;;33.97;25.90;;;;;;;;;;5049082;28;20045;-62
2023/10/19 12:59:11;;;;;;;37.00;29.70;;;;;;;;;;5048705;28;20127;-62
2023/10/19 13:01:37;;;;;;;36.13;28.60;;;;;;;;;;5048946;28;20072;-62
2023/10/19 13:04:13;;;;;;;35.60;28.20;;;;;;;;;;5048696;28;20049;-62
2023/10/19 13:06:40;;;;;;;37.90;28.67;;;;;;;;;;5049181;28;20040;-62
2023/10/19 13:09:09;;;;;;;37.43;29.20;;;;;;;;;;5048958;28;20057;-62
2023/10/19 13:11:35;;;;;;;40.57;31.03;;;;;;;;;;5047520;28;20474;-62
2023/10/19 13:14:01;;;;;;;48.30;33.27;;;;;;;;;;5048687;28;20455;-62
2023/10/19 13:16:27;;;;;;;50.50;34.17;;;;;;;;;;5048823;28;20041;-62
2023/10/19 13:18:53;;;;;;;56.87;37.07;;;;;;;;;;5048304;28;20124;-62
2023/10/19 13:21:27;;;;;;;52.63;35.23;;;;;;;;;;5047291;28;20045;-62
2023/10/19 13:23:53;;;;;;;65.10;37.80;;;;;;;;;;5048519;28;20056;-63
2023/10/19 13:26:19;;;;;;;55.97;35.00;;;;;;;;;;5048336;28;20056;-62
2023/10/19 13:28:47;;;;;;;52.00;34.90;;;;;;;;;;5048100;28;20041;-62
2023/10/19 13:31:16;;;;;;;51.07;33.73;;;;;;;;;;5048409;28;20095;-62
2023/10/19 13:33:43;;;;;;;51.53;32.70;;;;;;;;;;5048290;28;20052;-62
2023/10/19 13:36:10;;;;;;;58.40;34.90;;;;;;;;;;5048260;28;20419;-62
2023/10/19 13:38:36;;;;;;;55.30;33.63;;;;;;;;;;5047478;28;20076;-62
2023/10/19 13:41:11;;;;;;;52.90;34.07;;;;;;;;;;5048385;28;20083;-62
2023/10/19 13:43:38;;;;;;;47.27;30.67;;;;;;;;;;5048130;28;20132;-62
2023/10/19 13:46:04;;;;;;;49.13;32.50;;;;;;;;;;5047367;28;20443;-62
2023/10/19 13:48:31;;;;;;;51.03;32.10;;;;;;;;;;5048311;28;20091;-62
2023/10/19 13:51:00;;;;;;;50.20;32.40;;;;;;;;;;5047676;28;20123;-62
2023/10/19 13:53:27;;;;;;;51.03;33.27;;;;;;;;;;5047931;28;20041;-62
2023/10/19 13:55:53;;;;;;;52.57;31.43;;;;;;;;;;5048130;28;20068;-62
2023/10/19 13:58:19;;;;;;;50.60;32.83;;;;;;;;;;5047705;28;20524;-62
2023/10/19 14:00:47;;;;;;;47.27;31.27;;;;;;;;;;5047613;28;20521;-63
2023/10/19 14:03:13;;;;;;;46.83;30.27;;;;;;;;;;5047412;28;20392;-62
2023/10/19 14:05:42;;;;;;;56.10;32.37;;;;;;;;;;5048027;28;20307;-62
2023/10/19 14:08:08;;;;;;;50.93;30.63;;;;;;;;;;5047845;28;20075;-62
2023/10/19 14:10:35;;;;;;;53.57;32.13;;;;;;;;;;5047918;28;20378;-62
2023/10/19 14:13:01;;;;;;;52.23;32.93;;;;;;;;;;5047606;28;20088;-62
2023/10/19 14:15:33;;;;;;;52.80;30.50;;;;;;;;;;5047624;28;20041;-63
2023/10/19 14:17:59;;;;;;;50.33;30.37;;;;;;;;;;5047840;28;20041;-63
2023/10/19 14:20:26;;;;;;;50.53;31.10;;;;;;;;;;5047602;28;20511;-63
2023/10/19 14:22:55;;;;;;;51.33;31.43;;;;;;;;;;5047605;28;20136;-63
2023/10/19 14:25:22;;;;;;;51.47;30.20;;;;;;;;;;5047111;28;20088;-62
2023/10/19 14:27:49;;;;;;;50.70;31.13;;;;;;;;;;5047751;28;21343;-62
2023/10/19 14:30:16;;;;;;;41.60;27.27;;;;;;;;;;5047432;28;20170;-63